Time;durP1;ratioP1;P1;durP2;ratioP2;P2;SDS_P1;SDS_P2;PMS_P1;PMS_P2;Temp;Humidity;BMP_temperature;BMP_pressure;BME280_temperature;BME280_humidity;BME280_pressure;Samples;Min_cycle;Max_cycle;Signal;HPM_P1;HPM_P2
2021/03/17 00:00:21;;;;;;;5.25;3.08;;;;;;;;;;5155556;27;20193;-75
2021/03/17 00:02:47;;;;;;;6.03;3.72;;;;;;;;;;5155455;27;20536;-75
2021/03/17 00:05:15;;;;;;;4.72;3.40;;;;;;;;;;5146785;27;20272;-75
2021/03/17 00:07:41;;;;;;;4.88;2.85;;;;;;;;;;5134590;27;20209;-74
2021/03/17 00:10:08;;;;;;;4.80;3.00;;;;;;;;;;5134770;28;20299;-74
2021/03/17 00:12:35;;;;;;;6.63;4.03;;;;;;;;;;5134427;28;20191;-75
2021/03/17 00:15:01;;;;;;;3.65;2.55;;;;;;;;;;5134120;28;20202;-74
2021/03/17 00:17:27;;;;;;;4.35;2.85;;;;;;;;;;5134387;28;20194;-75
2021/03/17 00:19:53;;;;;;;4.93;3.15;;;;;;;;;;5134651;28;20202;-74
2021/03/17 00:22:19;;;;;;;4.45;3.05;;;;;;;;;;5134390;28;20238;-74
2021/03/17 00:24:46;;;;;;;6.45;3.35;;;;;;;;;;5146429;27;20201;-74
2021/03/17 00:27:12;;;;;;;6.10;3.60;;;;;;;;;;5155500;27;20201;-75
2021/03/17 00:29:38;;;;;;;7.78;4.30;;;;;;;;;;5153368;27;20668;-75
2021/03/17 00:32:04;;;;;;;5.65;3.50;;;;;;;;;;5155347;27;20216;-74
2021/03/17 00:34:31;;;;;;;6.43;3.58;;;;;;;;;;5155393;27;20616;-74
2021/03/17 00:36:57;;;;;;;8.10;3.65;;;;;;;;;;5155008;27;20284;-74
2021/03/17 00:39:23;;;;;;;6.20;3.60;;;;;;;;;;5154982;27;20198;-75
2021/03/17 00:41:50;;;;;;;6.90;3.78;;;;;;;;;;5155255;27;20198;-74
2021/03/17 00:44:16;;;;;;;7.85;3.88;;;;;;;;;;5158389;27;20206;-74
2021/03/17 00:46:43;;;;;;;7.57;3.70;;;;;;;;;;5158758;27;20288;-74
2021/03/17 00:49:09;;;;;;;8.65;3.85;;;;;;;;;;5159385;27;20702;-74
2021/03/17 00:51:35;;;;;;;6.30;4.43;;;;;;;;;;5158888;27;20182;-74
2021/03/17 00:54:01;;;;;;;8.20;5.10;;;;;;;;;;5159301;27;20434;-73
2021/03/17 00:56:27;;;;;;;6.60;3.78;;;;;;;;;;5159205;27;20560;-74
2021/03/17 00:58:53;;;;;;;9.35;4.60;;;;;;;;;;5159094;27;20495;-75
2021/03/17 01:01:19;;;;;;;7.90;4.07;;;;;;;;;;5158887;27;20193;-75
2021/03/17 01:03:45;;;;;;;8.93;4.82;;;;;;;;;;5158396;27;20221;-74
2021/03/17 01:06:12;;;;;;;6.97;4.50;;;;;;;;;;5158928;27;20185;-74
2021/03/17 01:08:38;;;;;;;9.00;5.03;;;;;;;;;;5158470;27;20200;-74
2021/03/17 01:11:04;;;;;;;7.60;4.63;;;;;;;;;;5158604;27;20207;-74
2021/03/17 01:13:30;;;;;;;6.63;3.85;;;;;;;;;;5149156;27;20591;-74
2021/03/17 01:15:57;;;;;;;8.40;4.82;;;;;;;;;;5137514;27;20208;-74
2021/03/17 01:18:23;;;;;;;6.78;4.30;;;;;;;;;;5138236;27;20695;-74
2021/03/17 01:20:49;;;;;;;6.65;5.13;;;;;;;;;;5137747;27;20224;-75
2021/03/17 01:23:15;;;;;;;11.38;5.00;;;;;;;;;;5137166;27;20301;-74
2021/03/17 01:25:43;;;;;;;10.85;4.78;;;;;;;;;;5137518;27;20304;-74
2021/03/17 01:28:10;;;;;;;11.63;6.18;;;;;;;;;;5137170;27;20179;-74
2021/03/17 01:30:37;;;;;;;9.80;5.18;;;;;;;;;;5137382;27;20202;-75
2021/03/17 01:33:04;;;;;;;9.25;4.32;;;;;;;;;;5137478;27;20220;-75
2021/03/17 01:35:31;;;;;;;14.32;6.30;;;;;;;;;;5137126;27;20238;-74
2021/03/17 01:37:57;;;;;;;7.10;3.83;;;;;;;;;;5137370;27;20206;-74
2021/03/17 01:40:23;;;;;;;8.25;5.35;;;;;;;;;;5137698;27;20711;-74
2021/03/17 01:42:49;;;;;;;12.40;5.93;;;;;;;;;;5137618;27;20222;-74
2021/03/17 01:45:16;;;;;;;6.70;3.78;;;;;;;;;;5137536;27;20198;-74
2021/03/17 01:47:43;;;;;;;6.47;3.90;;;;;;;;;;5136981;27;20210;-75
2021/03/17 01:50:12;;;;;;;8.48;4.68;;;;;;;;;;5136953;27;20579;-73
2021/03/17 01:52:38;;;;;;;7.68;4.88;;;;;;;;;;5150338;27;20612;-74
2021/03/17 01:55:05;;;;;;;5.88;5.00;;;;;;;;;;5156802;27;20205;-76
2021/03/17 01:57:31;;;;;;;7.00;4.10;;;;;;;;;;5157497;27;20197;-74
2021/03/17 01:59:58;;;;;;;8.30;4.75;;;;;;;;;;5157705;27;20201;-75
2021/03/17 02:02:24;;;;;;;7.85;5.00;;;;;;;;;;5157614;27;20204;-75
2021/03/17 02:04:49;;;;;;;10.53;4.73;;;;;;;;;;5157596;27;20205;-75
2021/03/17 02:07:17;;;;;;;12.07;4.43;;;;;;;;;;5157385;27;20788;-74
2021/03/17 02:09:42;;;;;;;10.18;4.70;;;;;;;;;;5157175;27;20903;-74
2021/03/17 02:12:17;;;;;;;11.23;5.20;;;;;;;;;;5157247;27;20191;-74
2021/03/17 02:14:49;;;;;;;11.38;6.10;;;;;;;;;;5154710;27;20541;-73
2021/03/17 02:17:17;;;;;;;8.85;4.93;;;;;;;;;;5157330;27;20361;-74
2021/03/17 02:19:58;;;;;;;7.68;4.57;;;;;;;;;;5157072;27;20590;-74
2021/03/17 02:22:38;;;;;;;9.80;5.25;;;;;;;;;;5157083;27;20242;-75
2021/03/17 02:25:09;;;;;;;8.23;4.90;;;;;;;;;;5156927;27;20196;-74
2021/03/17 02:28:08;;;;;;;10.50;5.13;;;;;;;;;;5156976;27;20240;-74
2021/03/17 02:30:55;;;;;;;9.23;5.25;;;;;;;;;;5156525;27;20193;-74
2021/03/17 02:33:45;;;;;;;12.63;5.55;;;;;;;;;;5156317;27;20180;-74
2021/03/17 02:36:13;;;;;;;12.77;6.80;;;;;;;;;;5154289;27;20276;-73
2021/03/17 02:38:42;;;;;;;10.07;5.13;;;;;;;;;;5154848;27;20286;-74
2021/03/17 02:41:10;;;;;;;11.55;5.30;;;;;;;;;;5156481;27;20278;-73
2021/03/17 02:43:40;;;;;;;10.98;4.75;;;;;;;;;;5156511;27;20261;-74
2021/03/17 02:46:08;;;;;;;10.20;5.80;;;;;;;;;;5156595;27;20203;-74
2021/03/17 02:48:37;;;;;;;8.27;5.03;;;;;;;;;;5156227;27;20287;-74
2021/03/17 02:51:06;;;;;;;10.80;6.05;;;;;;;;;;5156761;27;20237;-74
2021/03/17 02:53:33;;;;;;;9.00;5.38;;;;;;;;;;5157138;27;20196;-74
2021/03/17 02:56:00;;;;;;;10.38;5.20;;;;;;;;;;5154710;27;20190;-74
2021/03/17 02:58:27;;;;;;;12.05;6.05;;;;;;;;;;5156604;27;20196;-74
2021/03/17 03:00:53;;;;;;;11.38;5.13;;;;;;;;;;5156178;27;20197;-74
2021/03/17 03:03:20;;;;;;;7.22;6.03;;;;;;;;;;5156200;27;20303;-74
2021/03/17 03:05:46;;;;;;;13.52;7.25;;;;;;;;;;5155718;27;20200;-75
2021/03/17 03:08:13;;;;;;;10.57;5.82;;;;;;;;;;5156508;27;20275;-74
2021/03/17 03:10:40;;;;;;;13.40;7.10;;;;;;;;;;5156343;27;20197;-75
2021/03/17 03:13:06;;;;;;;10.60;5.10;;;;;;;;;;5156146;27;20199;-74
2021/03/17 03:15:33;;;;;;;13.77;6.50;;;;;;;;;;5156164;27;20719;-74
2021/03/17 03:18:00;;;;;;;12.43;7.18;;;;;;;;;;5155723;27;20461;-74
2021/03/17 03:20:29;;;;;;;11.82;5.75;;;;;;;;;;5155855;27;20215;-74
2021/03/17 03:22:56;;;;;;;8.05;5.15;;;;;;;;;;5155354;27;20684;-73
2021/03/17 03:25:23;;;;;;;10.70;6.28;;;;;;;;;;5155556;27;20329;-74
2021/03/17 03:27:49;;;;;;;7.45;4.38;;;;;;;;;;5155595;27;20237;-74
2021/03/17 03:30:17;;;;;;;11.15;4.80;;;;;;;;;;5155890;27;20320;-74
2021/03/17 03:32:44;;;;;;;11.38;5.30;;;;;;;;;;5155686;27;20200;-74
2021/03/17 03:35:11;;;;;;;11.68;5.65;;;;;;;;;;5155571;27;20231;-74
2021/03/17 03:37:37;;;;;;;6.57;4.63;;;;;;;;;;5155363;27;20263;-74
2021/03/17 03:40:06;;;;;;;8.60;5.57;;;;;;;;;;5154963;27;20287;-74
2021/03/17 03:42:33;;;;;;;11.05;5.05;;;;;;;;;;5155803;27;20242;-75
2021/03/17 03:44:59;;;;;;;7.60;4.95;;;;;;;;;;5155240;27;20209;-73
2021/03/17 03:47:26;;;;;;;7.47;4.67;;;;;;;;;;5155246;27;20288;-74
2021/03/17 03:49:52;;;;;;;13.48;5.05;;;;;;;;;;5155568;27;20450;-75
2021/03/17 03:52:21;;;;;;;14.70;6.60;;;;;;;;;;5153131;27;20190;-75
2021/03/17 03:54:51;;;;;;;8.57;4.65;;;;;;;;;;5155020;27;20204;-75
2021/03/17 03:57:22;;;;;;;11.52;5.53;;;;;;;;;;5155727;27;20642;-75
2021/03/17 03:59:49;;;;;;;9.55;5.22;;;;;;;;;;5155361;27;20180;-74
2021/03/17 04:02:20;;;;;;;12.23;6.32;;;;;;;;;;5155568;27;20202;-73
2021/03/17 04:04:48;;;;;;;11.10;5.78;;;;;;;;;;5155293;27;20230;-74
2021/03/17 04:07:15;;;;;;;9.23;5.43;;;;;;;;;;5155075;27;20272;-73
2021/03/17 04:09:43;;;;;;;9.88;6.63;;;;;;;;;;5155218;27;20280;-74
2021/03/17 04:12:10;;;;;;;10.27;5.70;;;;;;;;;;5155338;27;20285;-74
2021/03/17 04:14:36;;;;;;;10.30;5.60;;;;;;;;;;5155634;27;20207;-75
2021/03/17 04:17:07;;;;;;;10.68;6.28;;;;;;;;;;5155265;27;20202;-74
2021/03/17 04:19:33;;;;;;;9.57;6.53;;;;;;;;;;5160092;27;20186;-75
2021/03/17 04:22:01;;;;;;;7.57;4.55;;;;;;;;;;5159788;27;20604;-75
2021/03/17 04:24:27;;;;;;;11.52;5.95;;;;;;;;;;5158047;27;20207;-74
2021/03/17 04:26:54;;;;;;;14.40;6.55;;;;;;;;;;5159775;27;20185;-74
2021/03/17 04:29:21;;;;;;;11.90;5.55;;;;;;;;;;5159264;27;20186;-74
2021/03/17 04:31:50;;;;;;;12.30;5.82;;;;;;;;;;5159274;27;20203;-74
2021/03/17 04:34:17;;;;;;;11.43;6.82;;;;;;;;;;5159082;27;20204;-74
2021/03/17 04:36:44;;;;;;;11.20;5.95;;;;;;;;;;5158718;27;20239;-74
2021/03/17 04:39:10;;;;;;;10.63;6.07;;;;;;;;;;5158776;27;20211;-73
2021/03/17 04:41:36;;;;;;;13.68;7.45;;;;;;;;;;5159342;27;20192;-74
2021/03/17 04:44:03;;;;;;;12.38;5.82;;;;;;;;;;5159423;27;20228;-74
2021/03/17 04:46:29;;;;;;;12.80;6.03;;;;;;;;;;5158738;27;20272;-74
2021/03/17 04:48:55;;;;;;;9.25;6.43;;;;;;;;;;5158671;27;20205;-74
2021/03/17 04:51:23;;;;;;;11.70;6.60;;;;;;;;;;5149901;27;20190;-75
2021/03/17 04:53:49;;;;;;;10.70;5.97;;;;;;;;;;5158692;27;20194;-74
2021/03/17 04:56:15;;;;;;;11.70;6.18;;;;;;;;;;5158529;27;20205;-74
2021/03/17 04:58:42;;;;;;;12.77;6.90;;;;;;;;;;5158447;27;20205;-74
2021/03/17 05:01:09;;;;;;;11.60;6.68;;;;;;;;;;5158780;27;20204;-75
2021/03/17 05:03:37;;;;;;;13.85;6.18;;;;;;;;;;5158645;27;20254;-74
2021/03/17 05:06:04;;;;;;;12.88;6.90;;;;;;;;;;5158541;27;20257;-74
2021/03/17 05:08:31;;;;;;;7.85;5.63;;;;;;;;;;5158762;27;20208;-75
2021/03/17 05:10:57;;;;;;;13.27;6.65;;;;;;;;;;5158795;27;20259;-75
2021/03/17 05:13:24;;;;;;;16.05;7.05;;;;;;;;;;5158749;27;20205;-75
2021/03/17 05:15:50;;;;;;;11.70;5.07;;;;;;;;;;5158571;27;20219;-74
2021/03/17 05:18:18;;;;;;;6.55;3.75;;;;;;;;;;5149661;27;20296;-75
2021/03/17 05:20:46;;;;;;;10.90;6.22;;;;;;;;;;5158466;27;20182;-73
2021/03/17 05:23:12;;;;;;;12.60;5.43;;;;;;;;;;5158229;27;20229;-73
2021/03/17 05:25:39;;;;;;;10.40;5.25;;;;;;;;;;5158432;27;20272;-75
2021/03/17 05:28:05;;;;;;;12.60;6.05;;;;;;;;;;5157947;27;20198;-74
2021/03/17 05:30:32;;;;;;;8.80;5.25;;;;;;;;;;5158140;27;20563;-74
2021/03/17 05:32:59;;;;;;;11.90;6.00;;;;;;;;;;5147054;27;20205;-75
2021/03/17 05:35:26;;;;;;;9.43;5.95;;;;;;;;;;5137330;27;20237;-73
2021/03/17 05:37:52;;;;;;;9.68;5.25;;;;;;;;;;5137284;27;20213;-75
2021/03/17 05:40:18;;;;;;;10.00;5.35;;;;;;;;;;5140137;27;20996;-74
2021/03/17 05:42:45;;;;;;;8.43;4.93;;;;;;;;;;5146342;27;20515;-74
2021/03/17 05:45:12;;;;;;;11.98;5.57;;;;;;;;;;5157059;27;20225;-74
2021/03/17 05:47:39;;;;;;;11.75;5.10;;;;;;;;;;5157265;27;20221;-72
2021/03/17 05:50:08;;;;;;;11.88;6.20;;;;;;;;;;5157788;27;20205;-73
2021/03/17 05:52:34;;;;;;;9.45;6.25;;;;;;;;;;5157603;27;20690;-75
2021/03/17 05:55:01;;;;;;;10.15;5.25;;;;;;;;;;5157581;27;20174;-74
2021/03/17 05:57:28;;;;;;;10.95;5.03;;;;;;;;;;5157104;27;20631;-73
2021/03/17 05:59:55;;;;;;;10.00;4.60;;;;;;;;;;5156653;27;20189;-74
2021/03/17 06:02:20;;;;;;;9.52;5.13;;;;;;;;;;5156254;27;20288;-75
2021/03/17 06:04:47;;;;;;;10.20;4.73;;;;;;;;;;5156920;27;20508;-74
2021/03/17 06:07:15;;;;;;;10.70;5.28;;;;;;;;;;5155662;27;20439;-74
2021/03/17 06:09:44;;;;;;;12.27;5.18;;;;;;;;;;5156020;27;20185;-75
2021/03/17 06:12:10;;;;;;;10.15;5.80;;;;;;;;;;5155986;27;20200;-74
2021/03/17 06:14:37;;;;;;;8.82;5.75;;;;;;;;;;5156034;27;20691;-74
2021/03/17 06:17:08;;;;;;;13.23;7.57;;;;;;;;;;5155965;27;20251;-74
2021/03/17 06:19:35;;;;;;;10.05;5.80;;;;;;;;;;5156265;27;20193;-75
2021/03/17 06:22:01;;;;;;;8.65;4.72;;;;;;;;;;5155803;27;20198;-74
2021/03/17 06:24:27;;;;;;;11.68;6.78;;;;;;;;;;5156677;27;20229;-75
2021/03/17 06:26:54;;;;;;;11.57;6.20;;;;;;;;;;5155683;27;20223;-74
2021/03/17 06:29:20;;;;;;;9.32;5.50;;;;;;;;;;5156520;27;20296;-75
2021/03/17 06:31:47;;;;;;;14.48;6.47;;;;;;;;;;5156615;27;20300;-73
2021/03/17 06:34:14;;;;;;;9.35;5.65;;;;;;;;;;5155599;27;20631;-73
2021/03/17 06:36:49;;;;;;;12.95;5.57;;;;;;;;;;5155494;27;20220;-76
2021/03/17 06:39:15;;;;;;;14.88;8.10;;;;;;;;;;5154074;27;20193;-75
2021/03/17 06:41:43;;;;;;;9.65;5.72;;;;;;;;;;5140665;27;20206;-74
2021/03/17 06:44:09;;;;;;;9.93;5.00;;;;;;;;;;5134796;27;20231;-74
2021/03/17 06:46:35;;;;;;;13.93;6.28;;;;;;;;;;5137056;27;20193;-75
2021/03/17 06:49:01;;;;;;;9.05;5.07;;;;;;;;;;5155500;27;20205;-73
2021/03/17 06:51:30;;;;;;;10.70;4.23;;;;;;;;;;5155631;27;20597;-74
2021/03/17 06:53:57;;;;;;;11.18;5.55;;;;;;;;;;5155289;27;20431;-74
2021/03/17 06:56:25;;;;;;;11.15;4.72;;;;;;;;;;5154907;27;20245;-75
2021/03/17 06:58:52;;;;;;;8.45;4.47;;;;;;;;;;5155656;27;20283;-75
2021/03/17 07:01:28;;;;;;;7.32;5.10;;;;;;;;;;5155538;27;20190;-75
2021/03/17 07:03:55;;;;;;;6.55;5.05;;;;;;;;;;5155253;27;20640;-74
2021/03/17 07:06:21;;;;;;;12.55;5.00;;;;;;;;;;5155369;27;20193;-75
2021/03/17 07:08:48;;;;;;;10.53;4.60;;;;;;;;;;5155731;27;20192;-75
2021/03/17 07:11:20;;;;;;;9.43;5.68;;;;;;;;;;5155287;27;20443;-76
2021/03/17 07:13:52;;;;;;;10.00;4.97;;;;;;;;;;5155288;27;20655;-74
2021/03/17 07:16:27;;;;;;;8.05;5.03;;;;;;;;;;5151996;27;20229;-74
2021/03/17 07:18:53;;;;;;;9.20;5.55;;;;;;;;;;5155915;27;20185;-74
2021/03/17 07:21:28;;;;;;;7.18;4.13;;;;;;;;;;5154937;27;20202;-75
2021/03/17 07:23:55;;;;;;;9.85;3.72;;;;;;;;;;5154990;27;20655;-74
2021/03/17 07:26:22;;;;;;;13.20;4.88;;;;;;;;;;5155631;27;20205;-74
2021/03/17 07:28:55;;;;;;;9.07;4.10;;;;;;;;;;5154912;27;20220;-75
2021/03/17 07:31:22;;;;;;;8.75;5.50;;;;;;;;;;5154767;27;20233;-73
2021/03/17 07:33:48;;;;;;;10.57;5.35;;;;;;;;;;5155048;27;20645;-74
2021/03/17 07:36:30;;;;;;;10.45;3.80;;;;;;;;;;5154815;27;20357;-76
2021/03/17 07:38:57;;;;;;;6.43;3.53;;;;;;;;;;5154552;27;20209;-74
2021/03/17 07:41:24;;;;;;;6.00;4.60;;;;;;;;;;5149876;27;20194;-74
2021/03/17 07:43:51;;;;;;;5.65;3.53;;;;;;;;;;5138910;27;20667;-76
2021/03/17 07:46:17;;;;;;;10.00;5.18;;;;;;;;;;5133288;27;20217;-74
2021/03/17 07:48:43;;;;;;;8.75;4.70;;;;;;;;;;5135157;27;20202;-75
2021/03/17 07:51:09;;;;;;;8.55;4.50;;;;;;;;;;5154322;27;20201;-75
2021/03/17 07:53:36;;;;;;;13.90;4.35;;;;;;;;;;5153528;27;20247;-75
2021/03/17 07:56:03;;;;;;;9.27;5.53;;;;;;;;;;5154829;27;20246;-75
2021/03/17 07:58:29;;;;;;;9.55;5.65;;;;;;;;;;5154304;27;20201;-74
2021/03/17 08:00:55;;;;;;;5.93;3.95;;;;;;;;;;5154188;27;20292;-75
2021/03/17 08:03:22;;;;;;;8.75;5.18;;;;;;;;;;5154670;27;20939;-74
2021/03/17 08:05:48;;;;;;;10.05;5.82;;;;;;;;;;5154216;27;20198;-74
2021/03/17 08:08:15;;;;;;;11.88;5.63;;;;;;;;;;5154983;27;20181;-73
2021/03/17 08:10:42;;;;;;;9.40;5.78;;;;;;;;;;5154844;27;20541;-74
2021/03/17 08:13:10;;;;;;;8.52;4.60;;;;;;;;;;5154242;27;20276;-73
2021/03/17 08:15:37;;;;;;;8.80;4.80;;;;;;;;;;5154241;27;20205;-75
2021/03/17 08:18:03;;;;;;;7.20;4.25;;;;;;;;;;5152185;27;20186;-74
2021/03/17 08:20:29;;;;;;;8.45;4.90;;;;;;;;;;5153883;27;20233;-76
2021/03/17 08:22:56;;;;;;;11.40;5.00;;;;;;;;;;5153541;27;20409;-73
2021/03/17 08:25:42;;;;;;;10.95;5.47;;;;;;;;;;5152043;27;20224;-74
2021/03/17 08:28:19;;;;;;;5.40;3.83;;;;;;;;;;5142695;27;20229;-75
2021/03/17 08:30:46;;;;;;;8.70;4.07;;;;;;;;;;5154371;27;20213;-75
2021/03/17 08:33:29;;;;;;;8.07;4.82;;;;;;;;;;5149133;27;20251;-76
2021/03/17 08:36:06;;;;;;;6.03;3.80;;;;;;;;;;5134728;27;20234;-74
2021/03/17 08:38:56;;;;;;;6.93;4.03;;;;;;;;;;5153862;27;20193;-73
2021/03/17 08:41:42;;;;;;;4.72;3.72;;;;;;;;;;5118148;28;20202;-75
2021/03/17 08:44:12;;;;;;;6.72;3.95;;;;;;;;;;5153147;27;20208;-74
2021/03/17 08:46:38;;;;;;;7.80;4.88;;;;;;;;;;5153892;27;20611;-74
2021/03/17 08:49:04;;;;;;;8.63;2.70;;;;;;;;;;5154148;27;20206;-74
2021/03/17 08:52:05;;;;;;;8.93;5.20;;;;;;;;;;5153479;27;20201;-74
2021/03/17 08:54:44;;;;;;;5.40;3.20;;;;;;;;;;5152039;27;20215;-73
2021/03/17 08:57:11;;;;;;;9.63;3.83;;;;;;;;;;5139777;27;20183;-74
2021/03/17 08:59:41;;;;;;;6.80;4.70;;;;;;;;;;5133155;28;20199;-74
2021/03/17 09:02:16;;;;;;;10.48;4.30;;;;;;;;;;5132921;28;20259;-76
2021/03/17 09:04:46;;;;;;;5.50;2.70;;;;;;;;;;5135413;27;20228;-75
2021/03/17 09:07:12;;;;;;;8.07;4.00;;;;;;;;;;5151296;27;20286;-75
2021/03/17 09:09:51;;;;;;;7.30;4.93;;;;;;;;;;5157834;27;20210;-75
2021/03/17 09:12:18;;;;;;;11.02;3.92;;;;;;;;;;5157614;27;20259;-75
2021/03/17 09:14:45;;;;;;;7.55;3.67;;;;;;;;;;5157091;27;20240;-74
2021/03/17 09:17:18;;;;;;;5.93;3.65;;;;;;;;;;5157580;27;20801;-74
2021/03/17 09:20:14;;;;;;;4.53;3.50;;;;;;;;;;5157228;27;20223;-74
2021/03/17 09:22:45;;;;;;;5.75;2.35;;;;;;;;;;5156722;27;20209;-75
2021/03/17 09:25:12;;;;;;;9.18;3.15;;;;;;;;;;5156784;27;20238;-73
2021/03/17 09:27:43;;;;;;;3.28;2.90;;;;;;;;;;5152852;27;20535;-75
2021/03/17 09:30:11;;;;;;;6.70;3.97;;;;;;;;;;5140698;27;20553;-74
2021/03/17 09:32:37;;;;;;;4.75;3.05;;;;;;;;;;5154517;27;20257;-75
2021/03/17 09:35:03;;;;;;;8.77;3.53;;;;;;;;;;5157131;27;20405;-74
2021/03/17 09:37:30;;;;;;;3.05;2.42;;;;;;;;;;5157519;27;20198;-75
2021/03/17 09:39:56;;;;;;;6.13;3.50;;;;;;;;;;5157474;27;20556;-74
2021/03/17 09:42:22;;;;;;;5.47;3.10;;;;;;;;;;5157482;27;20211;-73
2021/03/17 09:44:54;;;;;;;4.07;3.53;;;;;;;;;;5156996;27;20297;-75
2021/03/17 09:47:26;;;;;;;7.35;3.28;;;;;;;;;;5157066;27;20579;-74
2021/03/17 09:49:52;;;;;;;8.32;4.18;;;;;;;;;;5156664;27;20587;-73
2021/03/17 09:52:18;;;;;;;5.70;4.00;;;;;;;;;;5156598;27;20259;-74
2021/03/17 09:54:44;;;;;;;5.45;4.15;;;;;;;;;;5156451;27;20519;-73
2021/03/17 09:57:10;;;;;;;4.97;2.20;;;;;;;;;;5156620;27;20213;-76
2021/03/17 09:59:38;;;;;;;6.97;3.60;;;;;;;;;;5156262;27;20423;-75
2021/03/17 10:02:05;;;;;;;3.75;2.03;;;;;;;;;;5154663;27;20182;-74
2021/03/17 10:04:33;;;;;;;3.00;2.55;;;;;;;;;;5155364;27;20582;-75
2021/03/17 10:07:00;;;;;;;3.38;1.85;;;;;;;;;;5152724;27;20668;-74
2021/03/17 10:09:26;;;;;;;8.27;4.22;;;;;;;;;;5156844;27;20663;-76
2021/03/17 10:11:58;;;;;;;5.10;3.85;;;;;;;;;;5156283;27;20240;-75
2021/03/17 10:14:25;;;;;;;7.15;4.05;;;;;;;;;;5156120;27;20178;-74
2021/03/17 10:16:52;;;;;;;5.63;3.55;;;;;;;;;;5155934;27;20635;-74
2021/03/17 10:19:17;;;;;;;3.72;2.15;;;;;;;;;;5156593;27;20202;-73
2021/03/17 10:21:45;;;;;;;4.30;2.70;;;;;;;;;;5156644;27;20284;-73
2021/03/17 10:24:11;;;;;;;2.70;1.75;;;;;;;;;;5156596;27;20555;-74
2021/03/17 10:26:38;;;;;;;6.20;2.75;;;;;;;;;;5143200;27;20345;-73
2021/03/17 10:29:05;;;;;;;3.50;2.05;;;;;;;;;;5148123;27;20234;-74
2021/03/17 10:31:34;;;;;;;2.55;2.20;;;;;;;;;;5156128;27;20197;-75
2021/03/17 10:34:00;;;;;;;2.95;1.90;;;;;;;;;;5156248;27;20205;-75
2021/03/17 10:36:27;;;;;;;3.28;2.10;;;;;;;;;;5148983;27;20269;-75
2021/03/17 10:38:54;;;;;;;2.45;2.00;;;;;;;;;;5154493;27;20200;-74
2021/03/17 10:41:40;;;;;;;4.57;2.30;;;;;;;;;;5156319;27;20207;-75
2021/03/17 10:44:16;;;;;;;3.58;2.40;;;;;;;;;;5156334;27;20711;-75
2021/03/17 10:47:01;;;;;;;6.05;2.35;;;;;;;;;;5150900;27;20192;-74
2021/03/17 10:49:27;;;;;;;1.90;1.70;;;;;;;;;;5155387;27;20202;-74
2021/03/17 10:51:54;;;;;;;3.42;1.77;;;;;;;;;;5156113;27;20210;-73
2021/03/17 10:54:31;;;;;;;1.20;0.70;;;;;;;;;;5156220;27;20206;-75
2021/03/17 10:56:57;;;;;;;2.50;1.80;;;;;;;;;;5156037;27;20182;-76
2021/03/17 10:59:24;;;;;;;1.60;1.13;;;;;;;;;;5156321;27;20550;-74
2021/03/17 11:01:50;;;;;;;2.33;1.35;;;;;;;;;;5156390;27;20258;-72
2021/03/17 11:04:17;;;;;;;2.88;2.35;;;;;;;;;;5156500;27;20328;-75
2021/03/17 11:06:57;;;;;;;4.78;2.58;;;;;;;;;;5155792;27;20258;-75
2021/03/17 11:09:23;;;;;;;2.70;2.10;;;;;;;;;;5155878;27;20193;-73
2021/03/17 11:11:50;;;;;;;3.30;2.30;;;;;;;;;;5155334;27;20202;-73
2021/03/17 11:14:31;;;;;;;1.65;1.55;;;;;;;;;;5155159;27;20205;-76
2021/03/17 11:17:02;;;;;;;3.38;2.20;;;;;;;;;;5155454;27;20201;-74
2021/03/17 11:19:28;;;;;;;6.03;2.40;;;;;;;;;;5155514;27;20201;-74
2021/03/17 11:21:54;;;;;;;2.30;2.00;;;;;;;;;;5155535;27;20198;-75
2021/03/17 11:24:22;;;;;;;5.07;1.85;;;;;;;;;;5155495;27;20224;-75
2021/03/17 11:26:52;;;;;;;2.97;1.75;;;;;;;;;;5155312;27;20233;-74
2021/03/17 11:29:20;;;;;;;2.35;1.65;;;;;;;;;;5155207;27;20225;-75
2021/03/17 11:31:46;;;;;;;3.33;2.22;;;;;;;;;;5155108;27;20213;-73
2021/03/17 11:34:13;;;;;;;4.55;1.80;;;;;;;;;;5155442;27;20242;-75
2021/03/17 11:36:40;;;;;;;2.63;1.38;;;;;;;;;;5155005;27;20233;-73
2021/03/17 11:39:07;;;;;;;2.30;1.48;;;;;;;;;;5155336;27;20210;-74
2021/03/17 11:41:33;;;;;;;4.15;1.40;;;;;;;;;;5155415;27;20188;-74
2021/03/17 11:43:59;;;;;;;2.17;1.58;;;;;;;;;;5154936;27;20260;-73
2021/03/17 11:46:26;;;;;;;3.70;2.30;;;;;;;;;;5155423;27;20225;-75
2021/03/17 11:48:53;;;;;;;3.50;2.13;;;;;;;;;;5154592;27;20198;-75
2021/03/17 11:51:19;;;;;;;2.15;1.80;;;;;;;;;;5155084;27;20288;-74
2021/03/17 11:53:45;;;;;;;3.60;1.65;;;;;;;;;;5154207;27;20305;-74
2021/03/17 11:56:12;;;;;;;1.58;1.33;;;;;;;;;;5154334;27;20698;-72
2021/03/17 11:58:38;;;;;;;2.78;1.52;;;;;;;;;;5155199;27;20205;-75
2021/03/17 12:01:04;;;;;;;2.22;1.85;;;;;;;;;;5154581;27;20584;-75
2021/03/17 12:03:31;;;;;;;3.92;2.30;;;;;;;;;;5154657;27;20579;-75
2021/03/17 12:05:57;;;;;;;3.30;2.13;;;;;;;;;;5154318;27;20203;-74
2021/03/17 12:08:23;;;;;;;10.23;4.75;;;;;;;;;;5155076;27;20220;-74
2021/03/17 12:10:51;;;;;;;3.00;2.65;;;;;;;;;;5154994;27;20198;-75
2021/03/17 12:13:18;;;;;;;2.30;1.60;;;;;;;;;;5154745;27;20186;-74
2021/03/17 12:15:44;;;;;;;1.80;1.27;;;;;;;;;;5154645;27;20229;-74
2021/03/17 12:18:10;;;;;;;2.55;1.13;;;;;;;;;;5154819;27;20962;-75
2021/03/17 12:20:37;;;;;;;6.30;3.45;;;;;;;;;;5155019;27;20237;-74
2021/03/17 12:23:04;;;;;;;2.25;1.95;;;;;;;;;;5154544;27;20201;-75
2021/03/17 12:25:30;;;;;;;1.92;1.25;;;;;;;;;;5153781;27;20228;-76
2021/03/17 12:27:56;;;;;;;1.50;1.10;;;;;;;;;;5154240;27;20664;-74
2021/03/17 12:30:22;;;;;;;1.98;1.13;;;;;;;;;;5154301;27;20916;-73
2021/03/17 12:32:49;;;;;;;1.52;1.10;;;;;;;;;;5154322;27;20613;-73
2021/03/17 12:35:16;;;;;;;2.75;1.15;;;;;;;;;;5153184;27;20230;-74
2021/03/17 12:37:44;;;;;;;1.10;1.00;;;;;;;;;;5153869;27;20186;-75
2021/03/17 12:40:11;;;;;;;1.65;1.33;;;;;;;;;;5157850;27;20200;-74
2021/03/17 12:42:37;;;;;;;1.20;1.10;;;;;;;;;;5158324;27;20187;-75
2021/03/17 12:45:05;;;;;;;0.90;0.80;;;;;;;;;;5158580;27;20761;-74
2021/03/17 12:47:31;;;;;;;1.00;0.90;;;;;;;;;;5153654;27;20197;-76
2021/03/17 12:49:57;;;;;;;1.95;1.20;;;;;;;;;;5155322;27;20229;-76
2021/03/17 12:52:23;;;;;;;1.33;1.10;;;;;;;;;;5137636;27;20244;-76
2021/03/17 12:54:51;;;;;;;1.45;1.05;;;;;;;;;;5137448;27;20198;-76
2021/03/17 12:57:17;;;;;;;1.40;1.30;;;;;;;;;;5137616;27;20187;-75
2021/03/17 12:59:43;;;;;;;1.00;0.82;;;;;;;;;;5154158;27;20282;-75
2021/03/17 13:02:10;;;;;;;1.10;0.80;;;;;;;;;;5156208;27;20220;-75
2021/03/17 13:04:36;;;;;;;1.10;0.70;;;;;;;;;;5158155;27;20229;-75
2021/03/17 13:07:03;;;;;;;1.88;0.90;;;;;;;;;;5156768;27;20216;-75
2021/03/17 13:09:29;;;;;;;2.03;1.38;;;;;;;;;;5157774;27;20198;-75
2021/03/17 13:11:56;;;;;;;1.83;1.40;;;;;;;;;;5158269;27;20285;-75
2021/03/17 13:14:24;;;;;;;0.93;0.70;;;;;;;;;;5157511;27;20190;-73
2021/03/17 13:16:50;;;;;;;1.65;0.88;;;;;;;;;;5158262;27;20677;-73
2021/03/17 13:19:16;;;;;;;2.03;0.85;;;;;;;;;;5142423;27;20726;-74
2021/03/17 13:21:42;;;;;;;1.10;1.00;;;;;;;;;;5137100;27;20589;-75
2021/03/17 13:24:09;;;;;;;2.58;0.95;;;;;;;;;;5137450;27;20709;-74
2021/03/17 13:26:35;;;;;;;1.73;1.33;;;;;;;;;;5155607;27;20224;-73
2021/03/17 13:29:02;;;;;;;0.80;0.77;;;;;;;;;;5158146;27;20206;-75
2021/03/17 13:31:28;;;;;;;1.02;0.90;;;;;;;;;;5158461;27;20229;-74
2021/03/17 13:33:54;;;;;;;0.75;0.60;;;;;;;;;;5158050;27;20194;-74
2021/03/17 13:36:20;;;;;;;1.08;0.60;;;;;;;;;;5157257;27;20225;-72
2021/03/17 13:38:46;;;;;;;0.90;0.60;;;;;;;;;;5158100;27;20222;-76
2021/03/17 13:41:13;;;;;;;2.97;0.77;;;;;;;;;;5157248;27;20194;-75
2021/03/17 13:43:39;;;;;;;2.15;0.75;;;;;;;;;;5156844;27;20293;-74
2021/03/17 13:46:06;;;;;;;0.80;0.70;;;;;;;;;;5157340;27;20226;-74
2021/03/17 13:48:32;;;;;;;0.95;0.85;;;;;;;;;;5157020;27;20205;-74
2021/03/17 13:50:58;;;;;;;1.10;0.70;;;;;;;;;;5155753;27;20604;-74
2021/03/17 13:53:24;;;;;;;1.33;0.70;;;;;;;;;;5138853;27;20562;-75
2021/03/17 13:55:50;;;;;;;1.23;1.13;;;;;;;;;;5135406;27;20199;-74
2021/03/17 13:58:17;;;;;;;1.70;1.10;;;;;;;;;;5136776;27;20194;-74
2021/03/17 14:00:44;;;;;;;1.95;1.10;;;;;;;;;;5136406;27;20198;-73
2021/03/17 14:03:11;;;;;;;1.17;0.85;;;;;;;;;;5151295;27;20230;-74
2021/03/17 14:05:37;;;;;;;0.93;0.82;;;;;;;;;;5156964;27;20716;-74
2021/03/17 14:08:03;;;;;;;1.27;1.00;;;;;;;;;;5157409;27;20194;-73
2021/03/17 14:10:31;;;;;;;2.17;1.20;;;;;;;;;;5157683;27;20197;-75
2021/03/17 14:12:58;;;;;;;1.20;0.90;;;;;;;;;;5143434;27;20215;-75
2021/03/17 14:15:25;;;;;;;1.52;1.10;;;;;;;;;;5135874;27;20198;-74
2021/03/17 14:17:51;;;;;;;1.40;1.15;;;;;;;;;;5135042;27;20206;-77
2021/03/17 14:20:19;;;;;;;2.75;1.52;;;;;;;;;;5135629;27;20616;-73
2021/03/17 14:22:45;;;;;;;1.15;0.88;;;;;;;;;;5135232;27;20203;-75
2021/03/17 14:25:13;;;;;;;1.20;1.00;;;;;;;;;;5136201;27;20226;-75
2021/03/17 14:27:39;;;;;;;1.92;1.30;;;;;;;;;;5136307;27;20243;-74
2021/03/17 14:30:06;;;;;;;1.38;1.10;;;;;;;;;;5135608;27;20721;-75
2021/03/17 14:32:32;;;;;;;1.77;1.45;;;;;;;;;;5136142;27;20271;-76
2021/03/17 14:34:58;;;;;;;1.85;1.45;;;;;;;;;;5135762;27;20287;-75
2021/03/17 14:37:26;;;;;;;2.38;1.77;;;;;;;;;;5134734;27;20255;-74
2021/03/17 14:39:52;;;;;;;1.73;1.38;;;;;;;;;;5135152;27;20230;-75
2021/03/17 14:42:18;;;;;;;1.60;1.05;;;;;;;;;;5138155;27;20190;-73